Vera Y Pintado, Argentina
Current Conditions -  °F | °C
As of 6:00 PM on Wednesday 26 Nov 2014 (Local Time) from SUSO Reporting Station
Few Clouds Few Clouds  
Wind Chill: 79°   Ceiling: Unl
Heat Index: 80°   Visibility: 6mi
Dew Point: 59°   Wind: 9mph
Humidity: 51%   Direction: 160°SSE
Pressure: 29.85"   Gusts: NA
Location:  30.15°S, 60.32°W
Report Text: SUSO 262100Z 16008KT 9999 FEW033 26/15 Q1011
Loading
Personal Weather Stations






























Interactive Weather Map New forecast layout! Learn more

10-Day Weather Forecast

Advertisements
Track Severe Weather on mobile